»·PEaware :: N587K KSNA-KCRQ

N587K :: KSNA-KCRQ

FLIGHT INFORMATION

Flight Status: Arrived
Operator: Privately registered:
United States
More flights under this callsign
Pilot: Ryan S. (25666)
Aircraft: PIPER PA-28 CHEROKEE ARCHER
(P28A)
More flights by this aircraft type
Origin: KSNA John Wayne-Orange Co
United States
Destination: KCRQ McClellan-Palomar
United States
More flights between these airports :: More routes between these airports
Route: V23 OCN
File this flight plan on PilotEdge
Remarks: I-2 rating
Altitude:
(Current/Filed)
5,000ft
Speed:
(Current/Filed)
107kts
Departed: 02-Dec-19 02:54 PM
Arrived: 02-Dec-19 03:44 PM
Distance/Time
Traveled:
44nm/0:50
Distance/Time
To Go:
Arrived

Flight Plot

Page will automatically refresh every two minutes.


Map Options




Map Legend


Flown Route
Filed Route
Departure Airport
Arrival Airport
Navaid (VOR, NDB)
Fix

Horizontal Profiles

Position Reports

Time Latitude Longitude Heading Altitude Ground
Speed
02-Dec-19 14:19 33.671975 -117.867498 206 59ft 0kts
02-Dec-19 14:20 33.671975 -117.867498 206 59ft 0kts
02-Dec-19 14:21 33.671975 -117.867498 206 59ft 0kts
02-Dec-19 14:22 33.671975 -117.867498 206 59ft 0kts
02-Dec-19 14:23 33.671975 -117.867498 206 59ft 0kts
02-Dec-19 14:24 33.671975 -117.867498 206 59ft 0kts
02-Dec-19 14:25 33.671975 -117.867498 206 59ft 0kts
02-Dec-19 14:26 33.671975 -117.867498 206 59ft 0kts
02-Dec-19 14:27 33.671975 -117.867498 206 59ft 0kts
02-Dec-19 14:28 33.671975 -117.867498 206 59ft 0kts
02-Dec-19 14:29 33.671975 -117.867498 206 59ft 0kts
02-Dec-19 14:30 33.671975 -117.867498 206 59ft 0kts
02-Dec-19 14:31 33.671975 -117.867498 206 59ft 0kts
02-Dec-19 14:32 33.671975 -117.867498 206 59ft 0kts
02-Dec-19 14:33 33.671975 -117.867498 206 59ft 0kts
02-Dec-19 14:34 33.671975 -117.867498 206 59ft 0kts
02-Dec-19 14:35 33.671975 -117.867498 206 59ft 0kts
02-Dec-19 14:36 33.671975 -117.867498 206 59ft 0kts
02-Dec-19 14:37 33.671975 -117.867498 206 59ft 0kts
02-Dec-19 14:38 33.671975 -117.867498 206 59ft 0kts
02-Dec-19 14:39 33.671975 -117.867498 206 59ft 0kts
02-Dec-19 14:40 33.671975 -117.867498 206 59ft 0kts
02-Dec-19 14:41 33.671975 -117.867498 206 59ft 0kts
02-Dec-19 14:42 33.671975 -117.867498 206 59ft 0kts
02-Dec-19 14:43 33.671975 -117.867498 206 59ft 0kts
02-Dec-19 14:44 33.671975 -117.867498 206 59ft 0kts
02-Dec-19 14:45 33.671975 -117.867498 206 59ft 0kts
02-Dec-19 14:46 33.671975 -117.867498 206 59ft 0kts
02-Dec-19 14:47 33.671975 -117.867498 206 59ft 0kts
02-Dec-19 14:48 33.672579 -117.867802 355 59ft 15kts
02-Dec-19 14:49 33.675469 -117.865622 28 59ft 18kts
02-Dec-19 14:50 33.678833 -117.863482 26 59ft 21kts
02-Dec-19 14:51 33.680693 -117.863172 298 59ft 0kts
02-Dec-19 14:52 33.680850 -117.863625 263 59ft 8kts
02-Dec-19 14:53 33.675045 -117.867281 207 146ft 75kts
02-Dec-19 14:54 33.660449 -117.871986 185 766ft 75kts
02-Dec-19 14:55 33.642535 -117.873158 187 1420ft 79kts
02-Dec-19 14:56 33.623163 -117.874426 185 2008ft 88kts
02-Dec-19 14:57 33.604118 -117.874729 187 2629ft 86kts
02-Dec-19 14:58 33.591136 -117.860943 109 3182ft 96kts
02-Dec-19 14:59 33.584808 -117.837650 111 3685ft 99kts
02-Dec-19 15:00 33.577258 -117.814448 127 4199ft 98kts
02-Dec-19 15:01 33.564521 -117.794574 138 4695ft 98kts
02-Dec-19 15:02 33.549008 -117.775835 140 5020ft 108kts
02-Dec-19 15:03 33.530411 -117.755410 142 5125ft 118kts
02-Dec-19 15:04 33.509809 -117.732833 143 5058ft 121kts
02-Dec-19 15:05 33.489864 -117.709014 138 5044ft 122kts
02-Dec-19 15:06 33.470234 -117.686596 142 5041ft 121kts
02-Dec-19 15:07 33.450600 -117.665090 141 5049ft 121kts
02-Dec-19 15:08 33.431622 -117.644005 141 5055ft 122kts
02-Dec-19 15:09 33.413314 -117.622760 142 5060ft 121kts
02-Dec-19 15:10 33.394934 -117.601514 141 5065ft 122kts
02-Dec-19 15:11 33.376620 -117.579913 141 5066ft 122kts
02-Dec-19 15:12 33.358704 -117.558844 140 5067ft 122kts
02-Dec-19 15:13 33.340832 -117.537121 142 5057ft 121kts
02-Dec-19 15:14 33.323075 -117.517092 143 5051ft 121kts
02-Dec-19 15:15 33.308506 -117.501763 145 5045ft 121kts
02-Dec-19 15:16 33.289123 -117.480257 141 5037ft 122kts
02-Dec-19 15:17 33.269873 -117.458486 142 5036ft 121kts
02-Dec-19 15:18 33.250635 -117.437302 144 5037ft 121kts
02-Dec-19 15:19 33.242754 -117.407206 90 5027ft 130kts
02-Dec-19 15:20 33.243189 -117.376234 90 5025ft 127kts
02-Dec-19 15:21 33.243461 -117.339106 92 4574ft 131kts
02-Dec-19 15:22 33.243460 -117.301922 93 4064ft 127kts
02-Dec-19 15:23 33.243504 -117.264932 92 4022ft 124kts
02-Dec-19 15:24 33.243812 -117.227630 90 4083ft 122kts
02-Dec-19 15:25 33.244332 -117.189717 92 4054ft 125kts
02-Dec-19 15:26 33.245018 -117.151500 88 4065ft 124kts
02-Dec-19 15:27 33.245286 -117.115226 91 4062ft 124kts
02-Dec-19 15:28 33.245277 -117.078682 91 4057ft 124kts
02-Dec-19 15:29 33.245278 -117.041863 92 4053ft 124kts
02-Dec-19 15:30 33.228383 -117.020059 172 4064ft 111kts
02-Dec-19 15:31 33.200492 -117.012918 172 3532ft 108kts
02-Dec-19 15:32 33.182630 -117.023414 221 3517ft 87kts
02-Dec-19 15:33 33.166787 -117.040210 245 3497ft 97kts
02-Dec-19 15:34 33.162711 -117.068021 256 3633ft 85kts
02-Dec-19 15:35 33.157344 -117.094145 266 3557ft 100kts
02-Dec-19 15:36 33.153261 -117.124333 258 2922ft 88kts
02-Dec-19 15:37 33.149303 -117.150940 252 2512ft 88kts
02-Dec-19 15:38 33.145087 -117.178031 261 2068ft 92kts
02-Dec-19 15:39 33.140142 -117.204982 260 1549ft 92kts
02-Dec-19 15:40 33.135741 -117.232363 259 1095ft 87kts
02-Dec-19 15:41 33.131989 -117.256425 260 659ft 88kts
02-Dec-19 15:42 33.128989 -117.275515 258 334ft 50kts
02-Dec-19 15:43 33.127513 -117.279943 212 334ft 4kts

Navigation Log

Ident Type
Flight plan parsing failed, navigation log unavailable